Time;durP1;ratioP1;P1;durP2;ratioP2;P2;SDS_P1;SDS_P2;PMS_P1;PMS_P2;Temp;Humidity;BMP_temperature;BMP_pressure;BME280_temperature;BME280_humidity;BME280_pressure;Samples;Min_cycle;Max_cycle;Signal;HPM_P1;HPM_P2
2022/10/21 00:01:17;;;;;;;32.72;16.70;;;13.30;99.90;;;;;;4995948;28;20022;-77
2022/10/21 00:03:43;;;;;;;27.58;14.88;;;13.30;99.90;;;;;;5013456;28;20029;-77
2022/10/21 00:06:10;;;;;;;28.80;14.77;;;13.40;99.90;;;;;;5000044;28;20030;-77
2022/10/21 00:08:36;;;;;;;29.65;14.82;;;13.40;99.90;;;;;;5017445;28;20029;-77
2022/10/21 00:11:04;;;;;;;27.10;14.52;;;13.50;99.90;;;;;;4999804;28;20030;-77
2022/10/21 00:13:32;;;;;;;30.27;15.77;;;13.50;99.90;;;;;;5000287;28;20026;-77
2022/10/21 00:16:02;;;;;;;33.40;15.48;;;13.50;99.90;;;;;;5000182;28;20058;-78
2022/10/21 00:18:29;;;;;;;25.88;13.50;;;13.60;99.90;;;;;;5017685;28;20080;-78
2022/10/21 00:20:54;;;;;;;23.90;13.77;;;13.70;99.90;;;;;;5000170;28;20026;-78
2022/10/21 00:23:20;;;;;;;29.73;14.98;;;13.90;99.90;;;;;;5000313;28;20026;-77
2022/10/21 00:25:46;;;;;;;30.75;15.75;;;13.70;99.90;;;;;;4999681;28;20033;-77
2022/10/21 00:28:12;;;;;;;32.95;16.45;;;13.30;99.90;;;;;;5000157;28;20022;-77
2022/10/21 00:30:44;;;;;;;30.50;15.52;;;13.10;99.90;;;;;;4999495;28;20030;-77
2022/10/21 00:33:13;;;;;;;38.85;18.33;;;13.10;99.90;;;;;;4999676;28;20038;-77
2022/10/21 00:35:39;;;;;;;34.13;17.10;;;13.10;99.90;;;;;;4999738;28;20034;-77
2022/10/21 00:38:05;;;;;;;30.88;15.68;;;13.00;99.90;;;;;;4999660;28;20084;-77
2022/10/21 00:40:31;;;;;;;32.38;16.65;;;13.10;99.90;;;;;;4999295;28;20018;-77
2022/10/21 00:42:57;;;;;;;33.10;15.85;;;13.20;99.90;;;;;;4999866;28;20025;-77
2022/10/21 00:45:27;;;;;;;32.97;16.08;;;13.10;99.90;;;;;;4999331;28;20022;-77
2022/10/21 00:47:58;;;;;;;34.50;15.80;;;13.20;99.90;;;;;;4999213;28;20125;-77
2022/10/21 00:50:32;;;;;;;41.27;16.33;;;13.10;99.90;;;;;;4999851;28;20026;-77
2022/10/21 00:53:00;;;;;;;33.97;16.67;;;13.00;99.90;;;;;;5016868;28;20257;-77
2022/10/21 00:55:28;;;;;;;33.28;15.63;;;12.90;99.90;;;;;;4998886;28;20050;-77
2022/10/21 00:57:55;;;;;;;35.88;16.60;;;12.90;99.90;;;;;;4998743;28;20482;-77
2022/10/21 01:00:20;;;;;;;36.70;17.92;;;12.90;99.90;;;;;;4998816;28;20188;-77
2022/10/21 01:02:46;;;;;;;32.72;16.50;;;12.90;99.90;;;;;;5016333;28;20494;-77
2022/10/21 01:05:13;;;;;;;36.85;16.30;;;12.90;99.90;;;;;;5016211;28;20025;-77
2022/10/21 01:07:39;;;;;;;33.13;16.48;;;12.90;99.90;;;;;;4998871;28;20037;-77
2022/10/21 01:10:05;;;;;;;38.03;19.05;;;12.90;99.90;;;;;;4998939;28;20030;-77
2022/10/21 01:13:03;;;;;;;40.40;15.50;;;12.90;99.90;;;;;;4998887;28;20022;-77
2022/10/21 01:15:44;;;;;;;45.13;16.58;;;12.90;99.90;;;;;;5007302;28;20154;-77
2022/10/21 01:18:37;;;;;;;31.70;16.52;;;13.00;99.90;;;;;;5016494;28;20058;-78
2022/10/21 01:21:12;;;;;;;31.38;15.73;;;13.00;99.90;;;;;;5016087;28;20030;-77
2022/10/21 01:24:13;;;;;;;34.33;16.63;;;13.00;99.90;;;;;;4999283;28;20025;-77
2022/10/21 01:26:56;;;;;;;35.50;17.17;;;13.00;99.90;;;;;;4998289;28;20026;-77
2022/10/21 01:29:31;;;;;;;31.75;15.95;;;13.10;99.90;;;;;;4998390;28;20032;-77
2022/10/21 01:32:22;;;;;;;29.55;16.00;;;13.10;99.90;;;;;;5016000;28;20118;-77
2022/10/21 01:35:02;;;;;;;31.88;15.75;;;13.30;99.90;;;;;;4998332;28;20112;-77
2022/10/21 01:37:42;;;;;;;34.00;15.23;;;13.30;99.90;;;;;;5015909;28;20436;-77
2022/10/21 01:40:14;;;;;;;29.65;15.50;;;13.30;99.90;;;;;;4998123;28;20026;-77
2022/10/21 01:42:58;;;;;;;33.60;16.42;;;13.30;99.90;;;;;;4998936;28;20022;-77
2022/10/21 01:45:37;;;;;;;32.03;15.70;;;13.30;99.90;;;;;;4998077;28;20553;-77
2022/10/21 01:48:09;;;;;;;45.42;18.67;;;13.30;99.90;;;;;;5015435;28;20029;-77
2022/10/21 01:50:41;;;;;;;37.30;16.70;;;13.30;99.90;;;;;;4997749;28;20061;-77
2022/10/21 01:53:10;;;;;;;34.90;15.52;;;13.30;99.90;;;;;;4997768;28;20477;-77
2022/10/21 01:55:37;;;;;;;38.40;16.77;;;13.20;99.90;;;;;;4997569;28;20100;-77
2022/10/21 01:58:07;;;;;;;37.33;18.35;;;13.20;99.90;;;;;;4997893;28;20120;-77
2022/10/21 02:00:35;;;;;;;42.08;18.50;;;13.20;99.90;;;;;;4998471;28;20069;-77
2022/10/21 02:03:05;;;;;;;40.97;19.05;;;13.20;99.90;;;;;;4998104;28;20028;-77
2022/10/21 02:05:33;;;;;;;46.70;19.95;;;13.20;99.90;;;;;;4997682;28;20363;-78
2022/10/21 02:07:59;;;;;;;41.30;17.80;;;13.20;99.90;;;;;;4998337;28;20029;-77
2022/10/21 02:10:27;;;;;;;43.20;19.17;;;13.20;99.90;;;;;;5015261;28;20030;-77
2022/10/21 02:12:57;;;;;;;44.42;18.77;;;13.30;99.90;;;;;;5015332;28;20046;-77
2022/10/21 02:15:24;;;;;;;37.70;17.85;;;13.30;99.90;;;;;;4997576;28;20509;-77
2022/10/21 02:17:57;;;;;;;45.80;17.70;;;13.40;99.90;;;;;;4997109;28;20026;-77
2022/10/21 02:20:26;;;;;;;38.17;17.58;;;13.50;99.90;;;;;;4997397;28;20018;-77
2022/10/21 02:22:52;;;;;;;36.80;16.83;;;13.50;99.90;;;;;;5014708;28;20018;-77
2022/10/21 02:25:24;;;;;;;35.13;15.18;;;13.60;99.90;;;;;;5014636;28;20041;-76
2022/10/21 02:27:51;;;;;;;33.22;15.20;;;13.60;99.90;;;;;;4996294;28;20026;-76
2022/10/21 02:30:17;;;;;;;40.10;16.40;;;13.70;99.90;;;;;;4996960;28;20078;-76
2022/10/21 02:33:01;;;;;;;42.75;16.92;;;13.70;99.90;;;;;;4997086;28;20053;-76
2022/10/21 02:35:58;;;;;;;44.75;15.90;;;13.70;99.90;;;;;;4997096;28;20053;-77
2022/10/21 02:38:46;;;;;;;45.33;16.90;;;13.70;99.90;;;;;;4997107;28;20022;-77
2022/10/21 02:41:15;;;;;;;44.63;17.25;;;13.80;99.90;;;;;;4997674;28;20058;-77
2022/10/21 02:43:48;;;;;;;36.10;15.43;;;13.90;99.90;;;;;;4996727;28;20028;-77
2022/10/21 02:46:14;;;;;;;40.22;15.20;;;14.00;99.90;;;;;;4996701;28;20113;-77
2022/10/21 02:48:43;;;;;;;50.63;16.13;;;14.00;99.90;;;;;;4996830;28;20026;-77
2022/10/21 02:51:08;;;;;;;43.22;16.70;;;14.00;99.90;;;;;;4997366;28;20072;-77
2022/10/21 02:53:35;;;;;;;47.45;16.65;;;13.90;99.90;;;;;;5014091;28;20057;-77
2022/10/21 02:56:01;;;;;;;41.72;16.58;;;13.90;99.90;;;;;;4996498;28;20495;-77
2022/10/21 02:58:27;;;;;;;46.30;15.77;;;13.90;99.90;;;;;;4996699;28;20026;-77
2022/10/21 03:00:52;;;;;;;50.40;16.98;;;13.90;99.90;;;;;;5014379;28;20033;-76
2022/10/21 03:03:18;;;;;;;43.72;16.23;;;13.90;99.90;;;;;;4996363;28;20025;-76
2022/10/21 03:05:44;;;;;;;48.25;17.02;;;13.80;99.90;;;;;;4996267;28;20025;-76
2022/10/21 03:08:09;;;;;;;50.45;17.08;;;13.80;99.90;;;;;;4997143;28;20032;-76
2022/10/21 03:10:35;;;;;;;44.88;15.73;;;13.80;99.90;;;;;;5013962;28;20034;-77
2022/10/21 03:13:01;;;;;;;38.22;15.00;;;13.90;99.90;;;;;;4996364;28;20053;-77
2022/10/21 03:15:26;;;;;;;38.33;15.10;;;14.00;99.90;;;;;;4996313;28;20053;-77
2022/10/21 03:17:52;;;;;;;41.78;15.55;;;14.10;99.90;;;;;;4997000;28;20030;-77
2022/10/21 03:20:17;;;;;;;40.95;14.75;;;14.00;99.90;;;;;;4996388;28;20033;-77
2022/10/21 03:22:43;;;;;;;42.17;15.20;;;14.10;99.90;;;;;;4996460;28;20021;-77
2022/10/21 03:25:09;;;;;;;40.58;13.75;;;14.20;99.90;;;;;;4996468;28;20072;-77
2022/10/21 03:27:35;;;;;;;35.20;14.77;;;14.20;99.90;;;;;;4996185;28;20034;-77
2022/10/21 03:30:00;;;;;;;39.50;13.48;;;14.10;99.90;;;;;;4996379;28;20088;-77
2022/10/21 03:32:26;;;;;;;36.50;13.80;;;14.30;99.90;;;;;;4996917;28;20096;-77
2022/10/21 03:34:51;;;;;;;46.28;14.85;;;14.40;99.90;;;;;;5040520;23;20045;-75
2022/10/21 03:37:17;;;;;;;31.52;13.52;;;14.40;99.90;;;;;;5033548;28;20060;-75
2022/10/21 03:39:42;;;;;;;33.85;13.52;;;14.40;99.90;;;;;;5033041;28;20430;-75
2022/10/21 03:42:08;;;;;;;39.63;14.52;;;14.40;99.90;;;;;;5015522;28;20075;-75
2022/10/21 03:44:34;;;;;;;48.47;16.13;;;14.40;99.90;;;;;;5033220;28;20017;-75
2022/10/21 03:46:59;;;;;;;38.50;13.52;;;14.20;99.90;;;;;;5016397;28;20022;-75
2022/10/21 03:49:25;;;;;;;37.78;12.73;;;14.10;99.90;;;;;;5033502;28;20018;-75
2022/10/21 03:51:50;;;;;;;36.00;14.70;;;14.40;99.90;;;;;;5015528;28;20021;-75
2022/10/21 03:54:17;;;;;;;30.58;12.75;;;14.30;99.90;;;;;;5015353;28;20026;-75
2022/10/21 03:56:42;;;;;;;38.15;14.68;;;14.30;99.90;;;;;;5016307;28;20057;-75
2022/10/21 03:59:08;;;;;;;41.30;15.05;;;14.40;99.90;;;;;;5016265;28;20507;-75
2022/10/21 04:01:33;;;;;;;39.30;14.88;;;14.40;99.90;;;;;;5015785;28;20023;-75
2022/10/21 04:03:59;;;;;;;46.20;15.48;;;14.30;99.90;;;;;;5015251;28;20032;-75
2022/10/21 04:06:25;;;;;;;48.60;16.75;;;14.20;99.90;;;;;;5015378;28;20088;-75
2022/10/21 04:08:51;;;;;;;41.35;15.18;;;14.20;99.90;;;;;;5033063;28;20037;-75
2022/10/21 04:11:16;;;;;;;47.13;16.00;;;14.30;99.90;;;;;;5015346;28;20060;-75
2022/10/21 04:13:42;;;;;;;41.80;16.83;;;14.30;99.90;;;;;;5015314;28;20545;-75
2022/10/21 04:16:13;;;;;;;39.80;16.13;;;14.30;99.90;;;;;;5015209;28;20033;-75
2022/10/21 04:18:39;;;;;;;42.47;17.33;;;14.40;99.90;;;;;;5015197;28;20026;-75
2022/10/21 04:21:04;;;;;;;42.90;16.50;;;14.50;99.90;;;;;;5015271;28;20025;-75
2022/10/21 04:23:30;;;;;;;38.78;15.02;;;14.50;99.90;;;;;;5015176;28;20025;-75
2022/10/21 04:25:55;;;;;;;44.40;17.35;;;14.60;99.90;;;;;;5015156;28;20028;-75
2022/10/21 04:28:21;;;;;;;51.53;16.60;;;14.70;99.90;;;;;;5015669;28;20550;-75
2022/10/21 04:30:49;;;;;;;47.05;15.93;;;14.70;99.90;;;;;;5015045;28;20369;-75
2022/10/21 04:33:14;;;;;;;40.10;15.27;;;14.60;99.90;;;;;;5015334;28;20036;-75
2022/10/21 04:35:40;;;;;;;46.75;18.50;;;14.60;99.90;;;;;;5015005;28;20033;-75
2022/10/21 04:38:06;;;;;;;48.55;17.08;;;14.50;99.90;;;;;;5015575;28;20029;-75
2022/10/21 04:40:32;;;;;;;59.45;17.00;;;14.50;99.90;;;;;;5015112;28;20021;-75
2022/10/21 04:42:57;;;;;;;55.30;16.00;;;14.60;99.90;;;;;;5015882;28;20116;-75
2022/10/21 04:45:23;;;;;;;57.17;18.35;;;14.60;99.90;;;;;;5014873;28;20106;-75
2022/10/21 04:47:48;;;;;;;50.63;17.50;;;14.60;99.90;;;;;;5032710;28;20029;-75
2022/10/21 04:50:14;;;;;;;53.33;18.13;;;14.50;99.90;;;;;;5015921;28;20029;-75
2022/10/21 04:52:39;;;;;;;56.50;17.85;;;14.50;99.90;;;;;;5018799;28;20022;-75
2022/10/21 04:55:05;;;;;;;44.13;16.60;;;14.40;99.90;;;;;;5018305;28;20029;-75
2022/10/21 04:57:31;;;;;;;38.22;15.30;;;14.50;99.90;;;;;;5018876;28;20037;-75
2022/10/21 04:59:56;;;;;;;43.25;17.00;;;14.50;99.90;;;;;;5036048;28;20017;-75
2022/10/21 05:02:23;;;;;;;35.25;14.98;;;14.50;99.90;;;;;;5018608;28;20029;-75
2022/10/21 05:04:48;;;;;;;36.17;15.13;;;14.50;99.90;;;;;;5018832;28;20056;-75
2022/10/21 05:07:14;;;;;;;40.58;15.52;;;14.60;99.90;;;;;;5018610;28;20086;-75
2022/10/21 05:09:40;;;;;;;34.20;14.95;;;14.60;99.90;;;;;;5019062;28;20436;-75
2022/10/21 05:12:05;;;;;;;35.60;14.93;;;14.50;99.90;;;;;;5019200;28;20480;-75
2022/10/21 05:14:31;;;;;;;34.95;13.95;;;14.50;99.90;;;;;;5018117;28;20025;-75
2022/10/21 05:16:56;;;;;;;35.35;14.85;;;14.40;99.90;;;;;;5018007;28;20017;-75
2022/10/21 05:19:22;;;;;;;44.67;15.85;;;14.30;99.90;;;;;;5017928;28;20030;-75
2022/10/21 05:21:47;;;;;;;31.33;13.75;;;14.20;99.90;;;;;;5036281;28;20021;-75
2022/10/21 05:24:14;;;;;;;41.63;15.10;;;14.20;99.90;;;;;;5017862;28;20116;-75
2022/10/21 05:26:39;;;;;;;34.03;14.20;;;14.30;99.90;;;;;;5017985;28;20024;-76
2022/10/21 05:29:05;;;;;;;33.33;14.23;;;14.20;99.90;;;;;;5017803;28;20116;-76
2022/10/21 05:31:30;;;;;;;31.58;12.85;;;14.30;99.90;;;;;;5035532;28;20100;-77
2022/10/21 05:33:56;;;;;;;35.45;13.15;;;14.30;99.90;;;;;;5017727;28;20044;-77
2022/10/21 05:36:22;;;;;;;27.30;12.15;;;14.50;99.90;;;;;;5035373;28;20116;-77
2022/10/21 05:38:47;;;;;;;25.98;12.40;;;14.50;99.90;;;;;;5018183;28;20017;-77
2022/10/21 05:41:13;;;;;;;28.48;12.02;;;14.40;99.90;;;;;;5017630;28;20022;-77
2022/10/21 05:43:39;;;;;;;30.60;13.10;;;14.50;99.90;;;;;;5017822;28;20139;-77
2022/10/21 05:46:06;;;;;;;26.98;12.90;;;14.40;99.90;;;;;;5017497;28;20365;-77
2022/10/21 05:48:32;;;;;;;28.95;12.40;;;14.40;99.90;;;;;;5035142;28;20037;-77
2022/10/21 05:50:57;;;;;;;28.80;12.63;;;14.50;99.90;;;;;;5035426;28;20022;-77
2022/10/21 05:53:23;;;;;;;25.65;12.18;;;14.40;99.90;;;;;;5017445;28;20030;-76
2022/10/21 05:55:59;;;;;;;22.98;11.80;;;14.40;99.90;;;;;;5017301;28;20029;-77
2022/10/21 05:58:26;;;;;;;24.45;11.55;;;14.30;99.90;;;;;;5017314;28;20021;-77
2022/10/21 06:00:55;;;;;;;36.40;12.43;;;14.40;99.90;;;;;;5018224;28;20029;-77
2022/10/21 06:03:23;;;;;;;28.20;13.55;;;14.30;99.90;;;;;;5034988;28;20111;-77
2022/10/21 06:05:49;;;;;;;27.17;11.98;;;14.40;99.90;;;;;;5017079;28;20025;-77
2022/10/21 06:08:15;;;;;;;28.52;11.90;;;14.40;99.90;;;;;;5034787;28;20029;-77
2022/10/21 06:10:41;;;;;;;31.63;12.43;;;14.30;99.90;;;;;;5016904;28;20045;-77
2022/10/21 06:13:06;;;;;;;27.02;12.75;;;14.20;99.90;;;;;;5017039;28;20107;-77
2022/10/21 06:15:32;;;;;;;33.80;10.90;;;14.20;99.90;;;;;;5016910;28;20124;-77
2022/10/21 06:17:58;;;;;;;27.48;10.73;;;14.30;99.90;;;;;;5017094;28;20477;-77
2022/10/21 06:20:23;;;;;;;31.00;11.38;;;14.30;99.90;;;;;;5017399;28;20018;-76
2022/10/21 06:22:49;;;;;;;35.35;12.32;;;14.10;99.90;;;;;;5034477;28;20036;-76
2022/10/21 06:25:14;;;;;;;29.85;11.88;;;14.10;99.90;;;;;;5016729;28;20025;-77
2022/10/21 06:27:40;;;;;;;22.20;11.05;;;14.20;99.90;;;;;;5034315;28;20026;-76
2022/10/21 06:30:06;;;;;;;30.67;12.40;;;14.30;99.90;;;;;;5017803;28;20112;-76
2022/10/21 06:32:31;;;;;;;24.08;11.10;;;14.20;99.90;;;;;;5034182;28;20037;-76
2022/10/21 06:34:57;;;;;;;33.17;12.07;;;14.20;99.90;;;;;;5016700;28;20091;-76
2022/10/21 06:37:23;;;;;;;25.35;11.95;;;14.20;99.90;;;;;;5016739;28;20496;-77
2022/10/21 06:39:48;;;;;;;27.25;12.27;;;14.30;99.90;;;;;;5016858;28;20028;-76
2022/10/21 06:42:14;;;;;;;33.13;11.50;;;14.30;99.90;;;;;;5016358;28;20021;-76
2022/10/21 06:44:40;;;;;;;27.35;11.18;;;14.30;99.90;;;;;;5016277;28;20021;-76
2022/10/21 06:47:06;;;;;;;28.90;11.90;;;14.40;99.90;;;;;;5016641;28;20026;-76
2022/10/21 06:49:31;;;;;;;29.95;12.90;;;14.40;99.90;;;;;;5016189;28;20423;-76
2022/10/21 06:51:57;;;;;;;34.63;13.02;;;14.30;99.90;;;;;;5034248;28;20037;-76
2022/10/21 06:54:22;;;;;;;33.58;11.73;;;14.30;99.90;;;;;;5017112;28;20112;-76
2022/10/21 06:56:48;;;;;;;31.02;11.20;;;14.30;99.90;;;;;;5016230;28;20164;-76
2022/10/21 06:59:14;;;;;;;29.88;12.75;;;14.40;99.90;;;;;;5016617;28;20037;-76
2022/10/21 07:01:39;;;;;;;30.25;11.80;;;14.30;99.90;;;;;;5016025;28;20021;-76
2022/10/21 07:04:05;;;;;;;29.23;11.85;;;14.20;99.90;;;;;;5033788;28;20021;-76
2022/10/21 07:06:31;;;;;;;29.20;11.77;;;14.20;99.90;;;;;;5016126;28;20028;-76
2022/10/21 07:08:57;;;;;;;28.80;13.02;;;14.30;99.90;;;;;;5016482;28;20025;-77
2022/10/21 07:11:22;;;;;;;27.33;11.75;;;14.30;99.90;;;;;;5016004;28;20056;-77
2022/10/21 07:13:48;;;;;;;34.72;12.55;;;14.20;99.90;;;;;;5015525;28;20112;-76
2022/10/21 07:16:20;;;;;;;32.15;12.52;;;14.10;99.90;;;;;;5015859;28;20053;-76
2022/10/21 07:18:46;;;;;;;37.88;12.90;;;14.10;99.90;;;;;;5033773;28;20029;-76
2022/10/21 07:21:16;;;;;;;29.25;11.55;;;14.10;99.90;;;;;;5033776;28;20680;-76
2022/10/21 07:23:43;;;;;;;32.85;12.23;;;14.10;99.90;;;;;;5015769;28;20018;-76
2022/10/21 07:26:09;;;;;;;28.58;11.57;;;14.00;99.90;;;;;;5015675;28;20025;-76
2022/10/21 07:28:34;;;;;;;25.67;11.55;;;14.00;99.90;;;;;;5033527;28;20038;-76
2022/10/21 07:31:00;;;;;;;24.38;12.05;;;14.00;99.90;;;;;;5016622;28;20026;-76
2022/10/21 07:33:26;;;;;;;29.33;11.73;;;14.00;99.90;;;;;;5015653;28;20021;-77
2022/10/21 07:36:01;;;;;;;29.85;12.63;;;14.00;99.90;;;;;;5016058;28;20045;-77
2022/10/21 07:38:26;;;;;;;28.58;11.20;;;14.00;99.90;;;;;;5015670;28;20025;-77
2022/10/21 07:40:52;;;;;;;35.72;11.55;;;14.00;99.90;;;;;;5016766;28;20030;-77
2022/10/21 07:43:17;;;;;;;32.33;10.80;;;14.10;99.90;;;;;;5016112;28;20132;-77
2022/10/21 07:45:43;;;;;;;26.77;10.93;;;14.20;99.90;;;;;;5033131;28;20092;-77
2022/10/21 07:48:09;;;;;;;26.95;11.30;;;14.20;99.90;;;;;;5015619;28;20033;-77
2022/10/21 07:50:35;;;;;;;30.17;11.88;;;14.20;99.90;;;;;;5015597;28;20030;-77
2022/10/21 07:53:01;;;;;;;28.35;11.75;;;14.40;99.90;;;;;;5033257;28;20108;-77
2022/10/21 07:55:28;;;;;;;24.23;9.65;;;14.50;99.90;;;;;;5015554;28;20045;-77
2022/10/21 07:57:53;;;;;;;26.38;10.63;;;14.40;99.90;;;;;;5033289;28;20030;-77
2022/10/21 08:00:19;;;;;;;27.30;10.43;;;14.50;99.90;;;;;;5033400;28;20520;-76
2022/10/21 08:02:44;;;;;;;31.45;11.23;;;14.30;99.90;;;;;;5033105;28;20022;-76
2022/10/21 08:05:10;;;;;;;28.02;11.55;;;14.20;99.90;;;;;;5033075;28;20049;-77
2022/10/21 08:07:35;;;;;;;26.95;10.85;;;14.20;99.90;;;;;;5015302;28;20036;-76
2022/10/21 08:10:03;;;;;;;27.23;11.82;;;14.10;99.90;;;;;;5015292;28;20030;-76
2022/10/21 08:12:29;;;;;;;29.58;10.10;;;14.20;99.90;;;;;;5015293;28;20163;-76
2022/10/21 08:14:54;;;;;;;27.98;9.93;;;14.20;99.90;;;;;;5033279;28;20116;-77
2022/10/21 08:17:20;;;;;;;24.40;9.63;;;14.30;99.90;;;;;;5015855;28;20057;-76
2022/10/21 08:19:55;;;;;;;19.83;10.15;;;14.40;99.90;;;;;;5015390;28;20028;-77
2022/10/21 08:22:21;;;;;;;23.55;8.90;;;14.60;99.90;;;;;;5015736;28;20052;-74
2022/10/21 08:24:47;;;;;;;21.17;8.82;;;14.70;99.90;;;;;;5033039;28;20096;-76
2022/10/21 08:27:12;;;;;;;21.15;8.82;;;14.60;99.90;;;;;;5019504;28;20443;-73
2022/10/21 08:29:38;;;;;;;28.77;8.40;;;14.70;99.90;;;;;;5019137;28;20049;-74
2022/10/21 08:32:04;;;;;;;16.58;8.40;;;14.70;99.90;;;;;;5019192;28;20025;-74
2022/10/21 08:34:30;;;;;;;16.05;8.10;;;14.70;99.90;;;;;;5018545;28;20036;-75
2022/10/21 08:36:55;;;;;;;20.25;8.40;;;14.60;99.90;;;;;;5019655;28;20022;-75
2022/10/21 08:39:23;;;;;;;28.20;9.38;;;14.70;99.90;;;;;;5018649;28;20056;-75
2022/10/21 08:42:05;;;;;;;23.27;9.32;;;14.60;99.90;;;;;;5036418;28;20045;-75
2022/10/21 08:44:34;;;;;;;17.58;8.88;;;14.60;99.90;;;;;;5018524;28;20049;-75
2022/10/21 08:47:12;;;;;;;16.80;9.35;;;14.60;99.90;;;;;;5016219;28;20021;-75
2022/10/21 08:50:11;;;;;;;22.67;10.95;;;14.40;99.90;;;;;;4998948;28;20044;-75
2022/10/21 08:52:44;;;;;;;27.63;10.27;;;14.40;99.90;;;;;;4999206;28;20112;-74
2022/10/21 08:55:23;;;;;;;21.38;9.45;;;14.20;99.90;;;;;;4998782;28;20018;-75
2022/10/21 08:57:52;;;;;;;22.55;9.80;;;14.20;99.90;;;;;;4998708;28;20065;-72
2022/10/21 09:00:21;;;;;;;18.02;9.38;;;14.20;99.90;;;;;;5016473;28;20033;-72
2022/10/21 09:02:54;;;;;;;25.73;11.32;;;14.20;99.90;;;;;;5016238;28;20030;-72
2022/10/21 09:05:32;;;;;;;24.80;10.68;;;14.30;99.90;;;;;;5016436;28;20045;-72
2022/10/21 09:08:33;;;;;;;22.58;10.13;;;14.30;99.90;;;;;;5016503;28;20036;-74
2022/10/21 09:11:07;;;;;;;23.20;9.47;;;14.40;99.90;;;;;;4998673;28;20121;-73
2022/10/21 09:14:03;;;;;;;25.15;9.88;;;14.50;99.90;;;;;;5016063;28;20340;-73
2022/10/21 09:16:47;;;;;;;23.42;8.52;;;14.50;99.90;;;;;;4998472;28;20033;-73
2022/10/21 09:19:31;;;;;;;23.80;10.13;;;14.50;99.90;;;;;;4999211;28;20121;-72
2022/10/21 09:22:32;;;;;;;23.67;11.40;;;14.50;99.90;;;;;;5000114;28;20026;-73
2022/10/21 09:25:01;;;;;;;23.02;9.95;;;14.40;99.90;;;;;;4998857;28;20029;-74
2022/10/21 09:27:27;;;;;;;24.52;9.95;;;14.50;99.90;;;;;;4998185;28;20018;-73
2022/10/21 09:30:01;;;;;;;20.10;9.75;;;14.60;99.90;;;;;;4998945;28;20075;-74
2022/10/21 09:32:38;;;;;;;28.67;10.70;;;14.60;99.90;;;;;;5015895;28;20120;-73
2022/10/21 09:35:25;;;;;;;22.13;9.77;;;14.50;99.90;;;;;;5029103;23;20041;-73
2022/10/21 09:38:01;;;;;;;31.80;12.10;;;14.60;99.90;;;;;;5034301;28;20241;-73
2022/10/21 09:40:29;;;;;;;21.55;10.85;;;14.50;99.90;;;;;;5018490;28;20025;-72
2022/10/21 09:42:58;;;;;;;25.27;12.20;;;14.40;99.90;;;;;;5034115;28;20472;-73
2022/10/21 09:45:30;;;;;;;27.67;11.98;;;14.40;99.90;;;;;;5035175;28;20021;-74
2022/10/21 09:48:08;;;;;;;22.95;10.75;;;14.40;99.90;;;;;;5035570;28;20491;-73
2022/10/21 09:50:36;;;;;;;28.73;11.18;;;14.50;99.90;;;;;;5017630;28;20476;-76
2022/10/21 09:53:08;;;;;;;26.73;11.68;;;14.50;99.90;;;;;;5018333;28;20025;-76
2022/10/21 09:55:33;;;;;;;;;;;14.40;99.90;;;;;;5018617;28;20022;-75
2022/10/21 09:58:01;;;;;;;31.08;10.25;;;14.50;99.90;;;;;;5035151;28;19916;-76
2022/10/21 10:00:46;;;;;;;20.60;10.32;;;14.40;99.90;;;;;;5017443;28;20025;-76
2022/10/21 10:03:12;;;;;;;17.70;8.80;;;14.40;99.90;;;;;;5017413;28;20481;-73
2022/10/21 10:05:45;;;;;;;15.80;8.05;;;14.40;99.90;;;;;;5035152;28;20028;-73
2022/10/21 10:08:26;;;;;;;15.30;7.60;;;14.50;99.90;;;;;;5017696;28;20029;-73
2022/10/21 10:11:03;;;;;;;11.43;5.60;;;14.40;99.90;;;;;;5017260;28;20029;-73
2022/10/21 10:13:30;;;;;;;15.18;7.60;;;14.60;99.90;;;;;;5034411;28;20030;-73
2022/10/21 10:16:27;;;;;;;18.52;7.93;;;14.60;99.90;;;;;;5035281;28;20028;-74
2022/10/21 10:19:16;;;;;;;18.55;8.45;;;14.50;99.90;;;;;;5017676;28;20025;-73
2022/10/21 10:21:42;;;;;;;11.40;6.47;;;14.50;99.90;;;;;;5034351;28;20033;-73
2022/10/21 10:24:20;;;;;;;13.38;6.88;;;14.60;99.90;;;;;;5016845;28;20026;-73
2022/10/21 10:26:47;;;;;;;16.40;7.18;;;14.60;99.90;;;;;;5017006;28;20032;-73
2022/10/21 10:29:25;;;;;;;6.88;4.55;;;14.40;99.90;;;;;;5034402;28;20029;-73
2022/10/21 10:31:57;;;;;;;13.82;5.60;;;14.50;99.90;;;;;;5034488;28;20033;-73
2022/10/21 10:34:34;;;;;;;11.38;5.55;;;14.50;99.90;;;;;;5016393;28;20033;-73
2022/10/21 10:37:17;;;;;;;9.38;5.18;;;14.60;99.90;;;;;;5034292;28;20052;-73
2022/10/21 10:39:47;;;;;;;18.20;6.28;;;14.60;99.90;;;;;;5017398;28;20167;-73
2022/10/21 10:42:27;;;;;;;6.82;4.57;;;14.60;99.90;;;;;;5016968;28;20022;-74
2022/10/21 10:45:14;;;;;;;9.52;4.50;;;14.70;99.90;;;;;;5016443;28;20030;-73
2022/10/21 10:47:45;;;;;;;6.80;4.50;;;14.60;99.90;;;;;;5033922;28;20022;-73
2022/10/21 10:50:45;;;;;;;8.40;5.10;;;14.60;99.90;;;;;;5034460;28;20040;-73
2022/10/21 10:53:28;;;;;;;21.60;7.05;;;14.60;99.90;;;;;;5033027;28;20026;-73
2022/10/21 10:56:23;;;;;;;20.10;6.22;;;14.70;99.90;;;;;;5016747;28;20095;-73
2022/10/21 10:59:30;;;;;;;18.80;7.10;;;14.60;99.90;;;;;;5016357;28;20029;-74
2022/10/21 11:01:59;;;;;;;12.40;6.07;;;14.60;99.90;;;;;;5015810;28;20034;-74
2022/10/21 11:04:35;;;;;;;11.52;5.20;;;14.60;99.90;;;;;;5033694;28;20026;-74
2022/10/21 11:07:06;;;;;;;32.83;8.50;;;14.60;99.90;;;;;;5016053;28;20022;-73
2022/10/21 11:09:33;;;;;;;34.95;8.80;;;14.60;99.90;;;;;;5032570;28;20030;-73
2022/10/21 11:12:04;;;;;;;20.52;8.27;;;14.60;99.90;;;;;;5033923;28;20026;-73
2022/10/21 11:14:29;;;;;;;22.85;7.53;;;14.60;99.90;;;;;;5015998;28;20029;-73
2022/10/21 11:16:58;;;;;;;12.50;5.55;;;14.60;99.90;;;;;;5016198;28;20037;-73
2022/10/21 11:19:47;;;;;;;16.10;6.25;;;14.70;99.90;;;;;;5033552;28;20032;-73
2022/10/21 11:25:46;;;;;;;18.13;6.90;;;14.70;99.90;;;;;;5033912;28;20091;-74
2022/10/21 11:28:28;;;;;;;25.13;7.53;;;14.70;99.90;;;;;;5033172;28;20033;-73
2022/10/21 11:31:19;;;;;;;18.20;7.03;;;14.60;99.90;;;;;;5032843;28;20163;-73
2022/10/21 11:34:03;;;;;;;11.50;5.63;;;14.60;99.90;;;;;;5015808;28;20488;-73
2022/10/21 11:36:44;;;;;;;19.40;7.13;;;14.70;99.90;;;;;;5032439;28;20132;-74
2022/10/21 11:39:29;;;;;;;10.85;5.22;;;14.60;99.90;;;;;;5015576;28;20476;-73
2022/10/21 11:42:20;;;;;;;8.63;5.18;;;14.60;99.90;;;;;;5033971;28;20032;-73
2022/10/21 11:44:54;;;;;;;8.10;4.75;;;14.90;99.90;;;;;;5016384;28;20018;-73
2022/10/21 11:47:33;;;;;;;9.48;5.13;;;14.90;99.90;;;;;;5016175;28;20031;-73
2022/10/21 11:50:07;;;;;;;10.45;5.13;;;15.00;99.90;;;;;;5032043;28;20472;-73
2022/10/21 11:52:52;;;;;;;7.88;5.00;;;15.10;99.90;;;;;;5031998;28;20088;-73
2022/10/21 11:55:42;;;;;;;6.97;4.70;;;15.20;99.90;;;;;;5016235;28;20108;-74
2022/10/21 11:58:32;;;;;;;7.03;4.55;;;15.20;99.90;;;;;;5032247;28;20025;-75
2022/10/21 12:01:29;;;;;;;8.60;4.72;;;15.20;99.90;;;;;;5036561;28;20065;-75
2022/10/21 12:04:23;;;;;;;7.65;4.72;;;15.20;99.90;;;;;;5038071;28;20013;-75
2022/10/21 12:07:00;;;;;;;13.98;5.90;;;15.30;99.90;;;;;;5037396;28;20027;-75
2022/10/21 12:09:43;;;;;;;11.05;5.20;;;15.40;99.90;;;;;;5020088;28;20463;-76
2022/10/21 12:12:12;;;;;;;10.93;4.95;;;15.40;99.90;;;;;;5036280;28;20463;-75
2022/10/21 12:14:48;;;;;;;10.68;4.95;;;15.50;99.90;;;;;;5036951;28;20029;-75
2022/10/21 12:17:20;;;;;;;5.43;3.75;;;15.60;99.90;;;;;;5020003;28;20021;-75
2022/10/21 12:20:07;;;;;;;10.13;4.75;;;15.50;99.90;;;;;;5035627;28;20022;-75
2022/10/21 12:22:33;;;;;;;11.50;5.82;;;15.60;99.90;;;;;;5019222;28;20025;-76
2022/10/21 12:25:36;;;;;;;5.95;4.30;;;15.60;99.90;;;;;;5019393;28;20036;-75
2022/10/21 12:28:15;;;;;;;6.82;4.30;;;15.70;99.90;;;;;;5020087;28;20029;-75
2022/10/21 12:30:53;;;;;;;7.07;3.88;;;15.80;99.90;;;;;;5020055;28;20095;-75
2022/10/21 12:33:37;;;;;;;7.85;4.55;;;15.70;99.90;;;;;;5037205;28;20026;-75
2022/10/21 12:36:21;;;;;;;6.72;3.40;;;15.70;99.90;;;;;;5019759;28;20059;-75
2022/10/21 12:38:52;;;;;;;8.73;4.18;;;15.90;99.90;;;;;;5018986;28;20022;-75
2022/10/21 12:41:28;;;;;;;11.88;5.20;;;15.80;99.90;;;;;;5036879;28;20017;-75
2022/10/21 12:43:59;;;;;;;12.68;5.32;;;15.80;99.90;;;;;;5037259;28;20087;-75
2022/10/21 12:46:43;;;;;;;13.63;5.80;;;15.90;99.90;;;;;;5019055;28;20025;-75
2022/10/21 12:49:18;;;;;;;6.70;4.07;;;15.80;99.90;;;;;;5019817;28;20120;-76
2022/10/21 12:52:01;;;;;;;19.92;6.63;;;15.80;99.90;;;;;;5019894;28;20086;-75
2022/10/21 12:54:30;;;;;;;12.18;5.60;;;15.80;99.90;;;;;;5036581;28;20159;-75